createdAt,value
2018-12-30T00:00:24.425Z,0.20
2018-12-30T00:02:53.925Z,0.20
2018-12-30T00:05:22.863Z,0.20
2018-12-30T00:07:51.415Z,0.20
2018-12-30T00:10:20.303Z,0.10
2018-12-30T00:12:48.885Z,0.10
2018-12-30T00:15:17.725Z,0.10
2018-12-30T00:17:46.333Z,0.10
2018-12-30T00:20:15.187Z,0.10
2018-12-30T00:22:43.747Z,0.10
2018-12-30T00:25:12.310Z,0.20
2018-12-30T00:27:40.869Z,0.20
2018-12-30T00:30:09.546Z,0.20
2018-12-30T00:32:38.345Z,0.20
2018-12-30T00:35:06.895Z,0.30
2018-12-30T00:37:35.443Z,0.30
2018-12-30T00:40:04.512Z,0.40
2018-12-30T00:42:33.047Z,0.40
2018-12-30T00:45:01.595Z,0.50
2018-12-30T00:47:30.430Z,0.60
2018-12-30T00:49:58.960Z,0.60
2018-12-30T00:52:27.502Z,0.70
2018-12-30T00:54:56.076Z,0.70
2018-12-30T00:57:24.994Z,0.70
2018-12-30T00:59:54.359Z,0.70
2018-12-30T01:02:23.008Z,0.80
2018-12-30T01:04:51.550Z,0.80
2018-12-30T01:07:20.179Z,0.80
2018-12-30T01:09:48.758Z,0.80
2018-12-30T01:12:17.411Z,0.80
2018-12-30T01:14:45.993Z,0.80
2018-12-30T01:17:14.529Z,0.80
2018-12-30T01:19:43.078Z,0.80
2018-12-30T01:22:11.533Z,0.90
2018-12-30T01:24:40.070Z,0.90
2018-12-30T01:27:08.648Z,0.90
2018-12-30T01:29:37.190Z,1.00
2018-12-30T01:32:06.014Z,1.00
2018-12-30T01:34:34.562Z,1.10
2018-12-30T01:37:03.096Z,1.10
2018-12-30T01:39:31.758Z,1.20
2018-12-30T01:42:00.343Z,1.30
2018-12-30T01:44:28.918Z,1.30
2018-12-30T01:46:57.442Z,1.30
2018-12-30T01:49:25.994Z,1.40
2018-12-30T01:51:54.569Z,1.40
2018-12-30T01:54:23.173Z,1.40
2018-12-30T01:56:51.919Z,1.50
2018-12-30T01:59:20.450Z,1.50
2018-12-30T02:01:48.970Z,1.50
2018-12-30T02:04:17.597Z,1.60
2018-12-30T02:06:46.053Z,1.60
2018-12-30T02:09:14.629Z,1.60
2018-12-30T02:11:43.110Z,1.60
2018-12-30T02:14:11.644Z,1.60
2018-12-30T02:16:40.415Z,1.60
2018-12-30T02:19:09.432Z,1.60
2018-12-30T02:21:41.196Z,1.70
2018-12-30T02:24:08.189Z,1.70
2018-12-30T02:26:36.725Z,1.70
2018-12-30T02:29:05.262Z,1.70
2018-12-30T02:31:34.020Z,1.80
2018-12-30T02:34:02.590Z,1.80
2018-12-30T02:36:31.153Z,1.90
2018-12-30T02:38:59.708Z,1.90
2018-12-30T02:41:28.256Z,1.90
2018-12-30T02:43:57.440Z,1.90
2018-12-30T02:46:25.969Z,2.00
2018-12-30T02:48:54.510Z,2.00
2018-12-30T02:51:23.276Z,2.00
2018-12-30T02:53:51.808Z,2.10
2018-12-30T02:56:20.649Z,2.10
2018-12-30T02:58:49.225Z,2.10
2018-12-30T03:01:17.793Z,2.10
2018-12-30T03:03:46.590Z,2.20
2018-12-30T03:06:15.133Z,2.10
2018-12-30T03:08:43.989Z,2.20
2018-12-30T03:11:12.563Z,2.20
2018-12-30T03:13:41.019Z,2.30
2018-12-30T03:16:09.490Z,2.30
2018-12-30T03:18:38.036Z,2.30
2018-12-30T03:21:06.715Z,2.30
2018-12-30T03:23:35.250Z,2.30
2018-12-30T03:26:03.733Z,2.30
2018-12-30T03:28:32.217Z,2.30
2018-12-30T03:31:00.672Z,2.40
2018-12-30T03:33:29.174Z,2.40
2018-12-30T03:35:57.735Z,2.40
2018-12-30T03:38:26.202Z,2.40
2018-12-30T03:40:55.125Z,2.40
2018-12-30T03:43:23.821Z,2.40
2018-12-30T03:45:52.358Z,2.40
2018-12-30T03:48:20.818Z,2.40
2018-12-30T03:50:49.314Z,2.40
2018-12-30T03:53:17.978Z,2.40
2018-12-30T03:55:46.423Z,2.40
2018-12-30T03:58:14.900Z,2.40
2018-12-30T04:00:43.403Z,2.50
2018-12-30T04:03:11.877Z,2.50
2018-12-30T04:05:40.365Z,2.50
2018-12-30T04:08:09.009Z,2.50
2018-12-30T04:10:37.559Z,2.50
2018-12-30T04:13:06.061Z,2.50
2018-12-30T04:15:34.525Z,2.50
2018-12-30T04:18:03.289Z,2.50
2018-12-30T04:20:31.775Z,2.50
2018-12-30T04:23:00.235Z,2.50
2018-12-30T04:25:28.929Z,2.50
2018-12-30T04:27:57.406Z,2.40
2018-12-30T04:30:25.945Z,2.40
2018-12-30T04:32:54.500Z,2.40
2018-12-30T04:35:22.979Z,2.40
2018-12-30T04:37:51.529Z,2.40
2018-12-30T04:40:19.997Z,2.40
2018-12-30T04:42:48.676Z,2.50
2018-12-30T04:45:17.145Z,2.40
2018-12-30T04:47:45.619Z,2.40
2018-12-30T04:50:14.113Z,2.40
2018-12-30T04:52:42.567Z,2.40
2018-12-30T04:55:11.059Z,2.40
2018-12-30T04:57:39.590Z,2.40
2018-12-30T05:00:08.509Z,2.40
2018-12-30T05:02:36.956Z,2.40
2018-12-30T05:05:06.338Z,2.30
2018-12-30T05:07:34.886Z,2.30
2018-12-30T05:10:03.823Z,2.30
2018-12-30T05:12:32.311Z,2.30
2018-12-30T05:15:00.882Z,2.30
2018-12-30T05:17:29.335Z,2.30
2018-12-30T05:19:57.805Z,2.30
2018-12-30T05:22:33.665Z,2.30
2018-12-30T05:24:56.498Z,2.30
2018-12-30T05:27:25.059Z,2.30
2018-12-30T05:29:53.566Z,2.20
2018-12-30T05:32:22.097Z,2.20
2018-12-30T05:34:50.570Z,2.30
2018-12-30T05:37:19.114Z,2.20
2018-12-30T05:39:47.582Z,2.20
2018-12-30T05:42:16.512Z,2.20
2018-12-30T05:44:45.047Z,2.20
2018-12-30T05:47:13.563Z,2.20
2018-12-30T05:49:42.101Z,2.10
2018-12-30T05:52:10.598Z,2.10
2018-12-30T05:54:39.084Z,2.10
2018-12-30T05:57:07.659Z,2.10
2018-12-30T05:59:36.118Z,2.10
2018-12-30T06:02:04.594Z,2.10
2018-12-30T06:04:33.087Z,2.10
2018-12-30T06:07:01.552Z,2.10
2018-12-30T06:09:30.047Z,2.00
2018-12-30T06:11:58.517Z,2.10
2018-12-30T06:14:27.004Z,2.10
2018-12-30T06:16:56.078Z,2.10
2018-12-30T06:19:24.551Z,2.10
2018-12-30T06:21:53.113Z,2.10
2018-12-30T06:24:21.591Z,2.10
2018-12-30T06:26:50.080Z,2.10
2018-12-30T06:29:18.556Z,2.10
2018-12-30T06:31:47.092Z,2.10
2018-12-30T06:34:15.658Z,2.10
2018-12-30T06:36:44.202Z,2.10
2018-12-30T06:39:12.691Z,2.10
2018-12-30T06:41:41.275Z,2.10
2018-12-30T06:44:10.652Z,2.10
2018-12-30T06:46:39.235Z,2.00
2018-12-30T06:49:07.726Z,2.10
2018-12-30T06:51:36.272Z,2.00
2018-12-30T06:54:04.792Z,2.00
2018-12-30T06:56:33.522Z,2.10
2018-12-30T06:59:03.430Z,2.00
2018-12-30T07:01:31.899Z,2.00
2018-12-30T07:04:00.678Z,2.00
2018-12-30T07:06:29.255Z,2.00
2018-12-30T07:08:57.737Z,2.00
2018-12-30T07:11:26.376Z,2.00
2018-12-30T07:13:55.009Z,2.00
2018-12-30T07:16:23.503Z,2.00
2018-12-30T07:18:52.090Z,2.00
2018-12-30T07:21:20.970Z,2.00
2018-12-30T07:23:49.511Z,2.00
2018-12-30T07:26:18.059Z,2.00
2018-12-30T07:28:46.603Z,2.00
2018-12-30T07:31:15.253Z,2.00
2018-12-30T07:33:43.793Z,2.00
2018-12-30T07:36:12.253Z,2.00
2018-12-30T07:38:40.815Z,2.00
2018-12-30T07:41:09.281Z,2.10
2018-12-30T07:43:37.861Z,2.10
2018-12-30T07:46:06.381Z,2.10
2018-12-30T07:48:34.873Z,2.10
2018-12-30T07:51:03.400Z,2.10
2018-12-30T07:53:31.941Z,2.10
2018-12-30T07:56:00.416Z,2.10
2018-12-30T07:58:29.074Z,2.10
2018-12-30T08:00:57.598Z,2.00
2018-12-30T08:03:26.058Z,2.00
2018-12-30T08:05:54.583Z,2.00
2018-12-30T08:08:23.074Z,2.00
2018-12-30T08:10:51.596Z,2.00
2018-12-30T08:13:20.206Z,2.00
2018-12-30T08:15:49.019Z,2.00
2018-12-30T08:18:18.144Z,2.00
2018-12-30T08:20:46.717Z,2.00
2018-12-30T08:23:21.481Z,2.00
2018-12-30T08:25:45.384Z,2.00
2018-12-30T08:28:13.855Z,2.00
2018-12-30T08:30:42.442Z,2.00
2018-12-30T08:33:10.914Z,2.00
2018-12-30T08:35:39.376Z,2.00
2018-12-30T08:38:07.935Z,2.00
2018-12-30T08:40:36.438Z,2.00
2018-12-30T08:43:04.902Z,2.00
2018-12-30T08:45:33.427Z,2.00
2018-12-30T08:48:01.985Z,2.10
2018-12-30T08:50:30.458Z,2.10
2018-12-30T08:52:59.060Z,2.10
2018-12-30T08:55:27.811Z,2.00
2018-12-30T08:57:58.502Z,2.10
2018-12-30T09:00:27.094Z,2.00
2018-12-30T09:02:55.690Z,2.10
2018-12-30T09:05:24.233Z,2.10
2018-12-30T09:07:52.792Z,2.10
2018-12-30T09:10:21.370Z,2.10
2018-12-30T09:12:49.833Z,2.10
2018-12-30T09:15:18.884Z,2.10
2018-12-30T09:17:47.706Z,2.10
2018-12-30T09:20:16.215Z,2.10
2018-12-30T09:22:44.732Z,2.10
2018-12-30T09:25:13.301Z,2.10
2018-12-30T09:27:41.818Z,2.10
2018-12-30T09:30:10.347Z,2.10
2018-12-30T09:32:38.902Z,2.10
2018-12-30T09:35:07.490Z,2.10
2018-12-30T09:37:37.373Z,2.20
2018-12-30T09:40:07.146Z,2.10
2018-12-30T09:42:35.767Z,2.20
2018-12-30T09:45:05.574Z,2.20
2018-12-30T09:47:34.125Z,2.20
2018-12-30T09:50:02.663Z,2.20
2018-12-30T09:52:31.125Z,2.20
2018-12-30T09:54:59.910Z,2.20
2018-12-30T09:57:28.443Z,2.30
2018-12-30T09:59:56.927Z,2.30
2018-12-30T10:02:25.454Z,2.30
2018-12-30T10:04:54.005Z,2.30
2018-12-30T10:07:22.508Z,2.40
2018-12-30T10:09:51.052Z,2.40
2018-12-30T10:12:19.602Z,2.50
2018-12-30T10:14:48.125Z,2.50
2018-12-30T10:17:16.639Z,2.50
2018-12-30T10:19:45.225Z,2.50
2018-12-30T10:22:13.745Z,2.50
2018-12-30T10:24:42.365Z,2.60
2018-12-30T10:27:10.923Z,2.60
2018-12-30T10:29:39.430Z,2.60
2018-12-30T10:32:07.891Z,2.50
2018-12-30T10:34:36.457Z,2.60
2018-12-30T10:37:05.054Z,2.50
2018-12-30T10:39:33.509Z,2.60
2018-12-30T10:42:02.035Z,2.60
2018-12-30T10:44:30.599Z,2.60
2018-12-30T10:46:59.096Z,2.60
2018-12-30T10:49:27.572Z,2.60
2018-12-30T10:51:56.149Z,2.60
2018-12-30T10:54:24.695Z,2.60
2018-12-30T10:56:53.275Z,2.60
2018-12-30T10:59:21.803Z,2.60
2018-12-30T11:01:50.669Z,2.60
2018-12-30T11:04:19.162Z,2.60
2018-12-30T11:06:47.772Z,2.60
2018-12-30T11:09:16.366Z,2.60
2018-12-30T11:11:44.962Z,2.60
2018-12-30T11:14:13.498Z,2.60
2018-12-30T11:16:42.050Z,2.60
2018-12-30T11:19:10.818Z,2.60
2018-12-30T11:21:39.349Z,2.70
2018-12-30T11:24:08.643Z,2.60
2018-12-30T11:26:38.629Z,2.60
2018-12-30T11:29:07.087Z,2.70
2018-12-30T11:31:35.592Z,2.70
2018-12-30T11:34:04.313Z,2.70
2018-12-30T11:36:32.772Z,2.70
2018-12-30T11:39:01.245Z,2.70
2018-12-30T11:41:29.803Z,2.70
2018-12-30T11:43:58.284Z,2.70
2018-12-30T11:46:27.014Z,2.70
2018-12-30T11:48:55.549Z,2.70
2018-12-30T11:51:24.010Z,2.70
2018-12-30T11:53:52.512Z,2.70
2018-12-30T11:56:20.986Z,2.70
2018-12-30T11:58:49.851Z,2.70
2018-12-30T12:01:18.611Z,2.70
2018-12-30T12:03:47.103Z,2.70
2018-12-30T12:06:15.655Z,2.70
2018-12-30T12:08:45.503Z,2.70
2018-12-30T12:11:13.974Z,2.70
2018-12-30T12:13:42.510Z,2.70
2018-12-30T12:16:11.192Z,2.70
2018-12-30T12:18:39.660Z,2.70
2018-12-30T12:21:08.126Z,2.70
2018-12-30T12:23:36.641Z,2.70
2018-12-30T12:26:05.197Z,2.70
2018-12-30T12:28:33.675Z,2.70
2018-12-30T12:31:02.304Z,2.70
2018-12-30T12:33:30.819Z,2.70
2018-12-30T12:35:59.291Z,2.70
2018-12-30T12:38:27.864Z,2.70
2018-12-30T12:40:56.429Z,2.70
2018-12-30T12:43:25.010Z,2.70
2018-12-30T12:45:53.580Z,2.80
2018-12-30T12:48:23.094Z,2.70
2018-12-30T12:50:51.632Z,2.70
2018-12-30T12:53:20.262Z,2.70
2018-12-30T12:55:49.116Z,2.70
2018-12-30T12:58:17.655Z,2.70
2018-12-30T13:00:46.266Z,2.70
2018-12-30T13:03:14.829Z,2.70
2018-12-30T13:05:43.377Z,2.70
2018-12-30T13:08:11.920Z,2.70
2018-12-30T13:10:40.665Z,2.70
2018-12-30T13:13:09.237Z,2.70
2018-12-30T14:20:48.936Z,2.80
2018-12-30T14:23:29.634Z,2.80
2018-12-30T14:26:10.499Z,2.90
2018-12-30T14:28:50.765Z,2.90
2018-12-30T14:31:31.516Z,2.90
2018-12-30T14:34:10.232Z,2.90
2018-12-30T14:36:58.101Z,2.90
2018-12-30T14:39:45.959Z,2.90
2018-12-30T14:42:33.794Z,2.90
2018-12-30T14:48:28.572Z,3.00
2018-12-30T14:51:16.457Z,3.10
2018-12-30T14:54:04.284Z,3.10
2018-12-30T14:56:52.186Z,3.20
2018-12-30T14:59:40.039Z,3.20
2018-12-30T15:02:08.503Z,3.20
2018-12-30T15:07:49.602Z,3.20
2018-12-30T15:10:37.416Z,3.10
2018-12-30T15:13:25.224Z,3.10
2018-12-30T15:16:13.072Z,3.10
2018-12-30T15:21:54.427Z,3.00
2018-12-30T15:24:42.223Z,3.00
2018-12-30T15:27:30.045Z,3.00
2018-12-30T15:30:17.858Z,3.00
2018-12-30T15:35:59.261Z,2.90
2018-12-30T15:38:27.732Z,2.90
2018-12-30T15:41:15.923Z,2.90
2018-12-30T15:44:03.774Z,2.90
2018-12-30T15:46:51.661Z,2.90
2018-12-30T15:49:39.515Z,2.90
2018-12-30T15:52:27.384Z,2.90
2018-12-30T15:55:19.340Z,2.90
2018-12-30T15:58:04.754Z,2.90
2018-12-30T16:00:45.467Z,2.90
2018-12-30T16:03:25.869Z,2.90
2018-12-30T16:06:06.653Z,2.90
2018-12-30T16:08:47.622Z,2.90
2018-12-30T16:11:28.832Z,2.90
2018-12-30T16:14:09.860Z,2.90
2018-12-30T16:16:51.632Z,2.90
2018-12-30T16:19:32.797Z,2.90
2018-12-30T16:22:13.616Z,2.90
2018-12-30T16:24:54.499Z,2.90
2018-12-30T16:27:35.661Z,2.90
2018-12-30T16:30:16.861Z,2.90
2018-12-30T16:32:58.298Z,2.90
2018-12-30T16:35:26.839Z,2.90
2018-12-30T16:38:14.755Z,2.90
2018-12-30T16:41:02.617Z,2.90
2018-12-30T16:43:50.454Z,2.90
2018-12-30T16:46:38.287Z,2.90
2018-12-30T16:49:26.092Z,3.00
2018-12-30T16:52:13.993Z,3.00
2018-12-30T16:55:01.795Z,3.00
2018-12-30T16:57:49.632Z,2.90
2018-12-30T17:03:11.260Z,2.90
2018-12-30T17:05:59.091Z,2.90
2018-12-30T17:08:40.284Z,2.90
2018-12-30T17:11:20.605Z,2.90
2018-12-30T17:14:00.893Z,2.90
2018-12-30T17:16:41.912Z,2.90
2018-12-30T17:19:23.065Z,2.90
2018-12-30T17:22:01.824Z,2.90
2018-12-30T17:24:50.612Z,2.90
2018-12-30T17:27:39.188Z,2.90
2018-12-30T17:30:09.613Z,2.90
2018-12-30T17:32:57.473Z,2.90
2018-12-30T17:35:46.276Z,2.80
2018-12-30T17:38:34.827Z,2.90
2018-12-30T17:41:22.665Z,2.90
2018-12-30T17:43:51.122Z,2.90
2018-12-30T17:46:38.976Z,2.90
2018-12-30T17:49:26.866Z,2.90
2018-12-30T17:52:14.665Z,2.90
2018-12-30T17:55:02.663Z,2.90
2018-12-30T17:57:50.543Z,2.90
2018-12-30T18:00:38.390Z,2.90
2018-12-30T18:03:26.302Z,2.90
2018-12-30T18:09:07.281Z,2.90
2018-12-30T18:11:48.039Z,2.90
2018-12-30T18:14:28.393Z,2.90
2018-12-30T18:17:09.280Z,2.90
2018-12-30T18:19:49.745Z,2.90
2018-12-30T18:22:30.061Z,2.90
2018-12-30T18:25:10.640Z,2.90
2018-12-30T18:27:50.971Z,2.90
2018-12-30T18:30:32.066Z,2.90
2018-12-30T18:33:13.239Z,2.90
2018-12-30T18:35:54.400Z,2.90
2018-12-30T18:38:34.959Z,2.90
2018-12-30T18:41:16.104Z,2.90
2018-12-30T18:43:57.287Z,2.90
2018-12-30T18:46:36.113Z,2.90
2018-12-30T18:49:23.972Z,2.90
2018-12-30T18:52:11.770Z,2.90
2018-12-30T18:54:59.607Z,2.90
2018-12-30T18:57:47.406Z,2.90
2018-12-30T19:00:35.241Z,2.90
2018-12-30T19:06:16.941Z,2.90
2018-12-30T19:08:57.803Z,2.90
2018-12-30T19:11:38.653Z,3.00
2018-12-30T19:14:19.208Z,3.00
2018-12-30T19:16:59.674Z,3.00
2018-12-30T19:19:38.600Z,3.10
2018-12-30T19:22:26.415Z,3.10
2018-12-30T19:25:14.245Z,3.10
2018-12-30T19:28:02.081Z,3.10
2018-12-30T19:30:50.002Z,3.10
2018-12-30T19:33:37.847Z,3.10
2018-12-30T19:36:25.727Z,3.20
2018-12-30T19:39:13.562Z,3.20
2018-12-30T19:42:01.363Z,3.20
2018-12-30T19:44:49.270Z,3.20
2018-12-30T19:50:24.241Z,3.20
2018-12-30T19:53:05.191Z,3.20
2018-12-30T19:55:45.514Z,3.20
2018-12-30T19:58:26.661Z,3.20
2018-12-30T20:01:07.648Z,3.20
2018-12-30T20:03:48.483Z,3.20
2018-12-30T20:06:29.549Z,3.20
2018-12-30T20:09:10.213Z,3.20
2018-12-30T20:11:51.139Z,3.20
2018-12-30T20:14:32.314Z,3.20
2018-12-30T20:17:12.637Z,3.20
2018-12-30T20:19:53.471Z,3.20
2018-12-30T20:22:34.076Z,3.20
2018-12-30T20:25:15.248Z,3.20
2018-12-30T20:27:55.594Z,3.20
2018-12-30T20:30:36.668Z,3.20
2018-12-30T20:33:17.692Z,3.20
2018-12-30T20:35:46.273Z,3.20
2018-12-30T20:38:34.125Z,3.20
2018-12-30T20:41:21.938Z,3.20
2018-12-30T20:44:09.845Z,3.20
2018-12-30T20:46:57.641Z,3.20
2018-12-30T20:49:38.428Z,3.20
2018-12-30T20:52:19.611Z,3.20
2018-12-30T20:55:00.306Z,3.20
2018-12-30T20:57:41.047Z,3.20
2018-12-30T21:00:21.505Z,3.20
2018-12-30T21:03:02.242Z,3.20
2018-12-30T21:05:43.271Z,3.20
2018-12-30T21:08:23.869Z,3.20
2018-12-30T21:11:04.443Z,3.20
2018-12-30T21:13:43.392Z,3.20
2018-12-30T21:16:31.245Z,3.20
2018-12-30T21:18:59.759Z,3.20
2018-12-30T21:21:47.616Z,3.20
2018-12-30T21:24:35.502Z,3.20
2018-12-30T21:27:23.304Z,3.20
2018-12-30T21:33:04.484Z,3.10
2018-12-30T21:38:45.312Z,3.20
2018-12-30T21:41:33.101Z,3.20
2018-12-30T21:44:20.919Z,3.20
2018-12-30T21:47:08.749Z,3.20
2018-12-30T21:49:56.635Z,3.20
2018-12-30T21:52:25.159Z,3.20
2018-12-30T21:55:13.001Z,3.20
2018-12-30T21:58:00.806Z,3.20
2018-12-30T22:00:48.709Z,3.20
2018-12-30T22:03:17.163Z,3.20
2018-12-30T22:06:04.985Z,3.20
2018-12-30T22:08:52.792Z,3.10
2018-12-30T22:11:40.704Z,3.20
2018-12-30T22:14:28.502Z,3.10
2018-12-30T22:20:10.640Z,3.20
2018-12-30T22:22:58.499Z,3.20
2018-12-30T22:25:46.292Z,3.20
2018-12-30T22:28:34.132Z,3.10
2018-12-30T22:34:16.756Z,3.10
2018-12-30T22:37:04.659Z,3.10
2018-12-30T22:39:44.915Z,3.10
2018-12-30T22:42:32.620Z,3.10
2018-12-30T22:45:07.902Z,3.10
2018-12-30T22:47:36.400Z,3.00
2018-12-30T22:50:24.519Z,3.10
2018-12-30T22:53:12.535Z,3.00
2018-12-30T22:56:00.370Z,3.00
2018-12-30T22:58:48.167Z,2.90
2018-12-30T23:01:36.009Z,2.90
2018-12-30T23:04:23.828Z,2.90
2018-12-30T23:07:12.575Z,2.80
2018-12-30T23:10:00.384Z,2.80
2018-12-30T23:12:48.272Z,2.70
2018-12-30T23:15:28.826Z,2.70
2018-12-30T23:17:57.284Z,2.70
2018-12-30T23:20:45.119Z,2.70
2018-12-30T23:23:32.963Z,2.60
2018-12-30T23:29:27.727Z,2.60
2018-12-30T23:32:15.553Z,2.50
2018-12-30T23:35:03.453Z,2.50
2018-12-30T23:37:51.279Z,2.50
2018-12-30T23:43:45.983Z,2.40
2018-12-30T23:49:27.710Z,2.40
2018-12-30T23:52:15.581Z,2.40
2018-12-30T23:55:03.474Z,2.40
